Gulf Shores, AL

6:40 AM CDT on July 28, 2016 (GMT -0500)
Little Lagoon | | Change Station

Elev 16 ft 30.26 °N, 87.69 °W | Updated 9 minutes ago

Clear
Clear
82.3 °F
Feels Like 92 °F
N
1.1
Wind Variable Wind from SSW

Today
High -- | Low -- °F
--% Chance of Precip.
Yesterday
High -- | Low -- °F
Precip. -- in
Pressure 30.05 in
Visibility 7.0 miles
Clouds Clear
Heat Index 92 °F
Dew Point 79 °F
Humidity 90%
Rainfall 0.00 in
Snow Depth Not available.
6:07 AM 7:46 PM
Waning Crescent, 33% visible
METAR KJKA 281135Z AUTO 00000KT 7SM CLR 23/23 A3005 RMK AO2 T02300230
Pressure 30.05 in
Visibility 7.0 miles
Clouds Clear
Heat Index 92 °F
Dew Point 79 °F
Humidity 90%
Rainfall 0.00 in
Snow Depth Not available.
6:07 AM 7:46 PM
Waning Crescent, 33% visible
METAR KJKA 281135Z AUTO 00000KT 7SM CLR 23/23 A3005 RMK AO2 T02300230

10-Day Weather Forecast

Almanac

Astronomy

Jul. 28, 2016 Rise Set
Actual Time
Civil Twilight
Nautical Twilight
Astronomical Twilight
Moon
Length of Visible Light
Length of Day
Tomorrow will be .
, % of the Moon is Illuminated

Today's Extremes

State Highs State Lows

Community

WunderPhotos

Upload Photos

1,928,083 photos uploaded!

WunderBlog® & News

Nearby

Air Quality

  Air Quality AQ Index Pollutant
Not available.

Snow Depth

Station Depth Elevation

Earthquake Activity

City Distance Mag. Time & Date
Minimum magnitude displayed is 2.5.

Coastal Water Temperatures

Place Temperature

Stations

Nearby Weather Stations

Station Location Temp. Windchill Dew Point Humidity Wind Precip. Elev Updated Type
                   

Watches & Warnings

There are currently no watches in effect.